sensor_id;sensor_type;location;lat;lon;timestamp;temperature;humidity
770;DHT22;368;48.698;9.116;2023-09-18T00:00:51;17.80;99.90
770;DHT22;368;48.698;9.116;2023-09-18T00:03:20;17.60;99.90
770;DHT22;368;48.698;9.116;2023-09-18T00:05:50;17.40;99.90
770;DHT22;368;48.698;9.116;2023-09-18T00:08:18;17.30;99.90
770;DHT22;368;48.698;9.116;2023-09-18T00:10:47;17.30;99.90
770;DHT22;368;48.698;9.116;2023-09-18T00:13:15;17.20;99.90
770;DHT22;368;48.698;9.116;2023-09-18T00:15:42;17.10;99.90
770;DHT22;368;48.698;9.116;2023-09-18T00:18:10;17.10;99.90
770;DHT22;368;48.698;9.116;2023-09-18T00:20:38;17.10;99.90
770;DHT22;368;48.698;9.116;2023-09-18T00:23:06;17.10;99.90
770;DHT22;368;48.698;9.116;2023-09-18T00:25:34;17.20;99.90
770;DHT22;368;48.698;9.116;2023-09-18T00:28:01;17.20;99.90
770;DHT22;368;48.698;9.116;2023-09-18T00:30:27;17.30;99.90
770;DHT22;368;48.698;9.116;2023-09-18T00:32:54;17.30;99.90
770;DHT22;368;48.698;9.116;2023-09-18T00:35:21;17.30;99.90
770;DHT22;368;48.698;9.116;2023-09-18T00:37:50;17.30;99.90
770;DHT22;368;48.698;9.116;2023-09-18T00:40:16;17.40;99.90
770;DHT22;368;48.698;9.116;2023-09-18T00:42:43;17.70;99.90
770;DHT22;368;48.698;9.116;2023-09-18T00:45:11;17.70;99.90
770;DHT22;368;48.698;9.116;2023-09-18T00:47:37;17.60;99.90
770;DHT22;368;48.698;9.116;2023-09-18T00:50:08;17.70;99.90
770;DHT22;368;48.698;9.116;2023-09-18T00:52:36;17.80;99.90
770;DHT22;368;48.698;9.116;2023-09-18T00:55:06;18.00;99.90
770;DHT22;368;48.698;9.116;2023-09-18T00:57:33;17.90;99.90
770;DHT22;368;48.698;9.116;2023-09-18T01:00:02;17.70;99.90
770;DHT22;368;48.698;9.116;2023-09-18T01:02:30;17.60;99.90
770;DHT22;368;48.698;9.116;2023-09-18T01:04:58;17.80;99.90
770;DHT22;368;48.698;9.116;2023-09-18T01:07:25;18.00;99.90
770;DHT22;368;48.698;9.116;2023-09-18T01:09:53;17.90;99.90
770;DHT22;368;48.698;9.116;2023-09-18T01:12:26;17.80;99.90
770;DHT22;368;48.698;9.116;2023-09-18T01:15:02;17.90;99.90
770;DHT22;368;48.698;9.116;2023-09-18T01:17:34;18.10;99.90
770;DHT22;368;48.698;9.116;2023-09-18T01:20:02;18.30;99.90
770;DHT22;368;48.698;9.116;2023-09-18T01:22:31;18.20;99.90
770;DHT22;368;48.698;9.116;2023-09-18T01:24:58;18.20;99.90
770;DHT22;368;48.698;9.116;2023-09-18T01:27:25;18.40;99.90
770;DHT22;368;48.698;9.116;2023-09-18T01:29:52;18.40;99.90
770;DHT22;368;48.698;9.116;2023-09-18T01:32:21;18.30;99.90
770;DHT22;368;48.698;9.116;2023-09-18T01:34:52;18.40;99.90
770;DHT22;368;48.698;9.116;2023-09-18T01:37:21;18.50;99.90
770;DHT22;368;48.698;9.116;2023-09-18T01:39:52;18.60;99.90
770;DHT22;368;48.698;9.116;2023-09-18T01:42:20;18.60;99.90
770;DHT22;368;48.698;9.116;2023-09-18T01:44:47;18.50;99.90
770;DHT22;368;48.698;9.116;2023-09-18T01:47:16;18.30;99.90
770;DHT22;368;48.698;9.116;2023-09-18T01:49:44;18.90;99.90
770;DHT22;368;48.698;9.116;2023-09-18T01:52:12;19.30;99.90
770;DHT22;368;48.698;9.116;2023-09-18T01:54:39;19.70;99.90
770;DHT22;368;48.698;9.116;2023-09-18T01:57:07;19.90;99.90
770;DHT22;368;48.698;9.116;2023-09-18T01:59:34;20.10;99.90
770;DHT22;368;48.698;9.116;2023-09-18T02:02:01;20.20;99.90
770;DHT22;368;48.698;9.116;2023-09-18T02:04:29;19.50;99.90
770;DHT22;368;48.698;9.116;2023-09-18T02:06:56;19.00;99.90
770;DHT22;368;48.698;9.116;2023-09-18T02:09:23;18.80;99.90
770;DHT22;368;48.698;9.116;2023-09-18T02:11:50;18.70;99.90
770;DHT22;368;48.698;9.116;2023-09-18T02:14:18;18.60;99.90
770;DHT22;368;48.698;9.116;2023-09-18T02:16:45;18.40;99.90
770;DHT22;368;48.698;9.116;2023-09-18T02:19:13;18.30;99.90
770;DHT22;368;48.698;9.116;2023-09-18T02:21:40;18.20;99.90
770;DHT22;368;48.698;9.116;2023-09-18T02:24:07;18.20;99.90
770;DHT22;368;48.698;9.116;2023-09-18T02:26:34;18.00;99.90
770;DHT22;368;48.698;9.116;2023-09-18T02:29:03;18.00;99.90
770;DHT22;368;48.698;9.116;2023-09-18T02:31:31;18.00;99.90
770;DHT22;368;48.698;9.116;2023-09-18T02:33:58;17.90;99.90
770;DHT22;368;48.698;9.116;2023-09-18T02:36:25;17.80;99.90
770;DHT22;368;48.698;9.116;2023-09-18T02:38:51;17.70;99.90
770;DHT22;368;48.698;9.116;2023-09-18T02:41:18;17.90;99.90
770;DHT22;368;48.698;9.116;2023-09-18T02:43:45;17.90;99.90
770;DHT22;368;48.698;9.116;2023-09-18T02:46:12;17.80;99.90
770;DHT22;368;48.698;9.116;2023-09-18T02:48:40;17.80;99.90
770;DHT22;368;48.698;9.116;2023-09-18T02:51:06;17.70;99.90
770;DHT22;368;48.698;9.116;2023-09-18T02:53:34;17.70;99.90
770;DHT22;368;48.698;9.116;2023-09-18T02:56:01;17.60;99.90
770;DHT22;368;48.698;9.116;2023-09-18T02:58:28;17.60;99.90
770;DHT22;368;48.698;9.116;2023-09-18T03:00:57;17.50;99.90
770;DHT22;368;48.698;9.116;2023-09-18T03:03:25;17.50;99.90
770;DHT22;368;48.698;9.116;2023-09-18T03:06:00;17.50;99.90
770;DHT22;368;48.698;9.116;2023-09-18T03:08:28;17.40;99.90
770;DHT22;368;48.698;9.116;2023-09-18T03:10:55;17.40;99.90
770;DHT22;368;48.698;9.116;2023-09-18T03:13:22;17.30;99.90
770;DHT22;368;48.698;9.116;2023-09-18T03:15:50;17.20;99.90
770;DHT22;368;48.698;9.116;2023-09-18T03:18:16;17.20;99.90
770;DHT22;368;48.698;9.116;2023-09-18T03:20:43;17.00;99.90
770;DHT22;368;48.698;9.116;2023-09-18T03:23:11;17.00;99.90
770;DHT22;368;48.698;9.116;2023-09-18T03:25:38;17.10;99.90
770;DHT22;368;48.698;9.116;2023-09-18T03:28:05;17.10;99.90
770;DHT22;368;48.698;9.116;2023-09-18T03:30:32;17.00;99.90
770;DHT22;368;48.698;9.116;2023-09-18T03:32:59;17.00;99.90
770;DHT22;368;48.698;9.116;2023-09-18T03:35:28;17.00;99.90
770;DHT22;368;48.698;9.116;2023-09-18T03:37:54;17.00;99.90
770;DHT22;368;48.698;9.116;2023-09-18T03:40:22;16.90;99.90
770;DHT22;368;48.698;9.116;2023-09-18T03:42:49;17.00;99.90
770;DHT22;368;48.698;9.116;2023-09-18T03:45:16;17.20;99.90
770;DHT22;368;48.698;9.116;2023-09-18T03:47:44;17.20;99.90
770;DHT22;368;48.698;9.116;2023-09-18T03:50:12;17.20;99.90
770;DHT22;368;48.698;9.116;2023-09-18T03:52:39;17.30;99.90
770;DHT22;368;48.698;9.116;2023-09-18T03:55:07;17.30;99.90
770;DHT22;368;48.698;9.116;2023-09-18T03:57:35;17.30;99.90
770;DHT22;368;48.698;9.116;2023-09-18T04:00:04;17.40;99.90
770;DHT22;368;48.698;9.116;2023-09-18T04:02:31;17.40;99.90
770;DHT22;368;48.698;9.116;2023-09-18T04:04:58;17.50;99.90
770;DHT22;368;48.698;9.116;2023-09-18T04:07:25;17.50;99.90
770;DHT22;368;48.698;9.116;2023-09-18T04:09:51;17.50;99.90
770;DHT22;368;48.698;9.116;2023-09-18T04:12:18;17.60;99.90
770;DHT22;368;48.698;9.116;2023-09-18T04:14:46;17.60;99.90
770;DHT22;368;48.698;9.116;2023-09-18T04:17:13;17.80;99.90
770;DHT22;368;48.698;9.116;2023-09-18T04:19:40;17.90;99.90
770;DHT22;368;48.698;9.116;2023-09-18T04:22:08;17.90;99.90
770;DHT22;368;48.698;9.116;2023-09-18T04:24:35;18.00;99.90
770;DHT22;368;48.698;9.116;2023-09-18T04:27:02;18.20;99.90
770;DHT22;368;48.698;9.116;2023-09-18T04:29:29;18.20;99.90
770;DHT22;368;48.698;9.116;2023-09-18T04:31:57;18.30;99.90
770;DHT22;368;48.698;9.116;2023-09-18T04:34:24;18.30;99.90
770;DHT22;368;48.698;9.116;2023-09-18T04:36:51;18.20;99.90
770;DHT22;368;48.698;9.116;2023-09-18T04:39:18;18.20;99.90
770;DHT22;368;48.698;9.116;2023-09-18T04:41:45;18.20;99.90
770;DHT22;368;48.698;9.116;2023-09-18T04:44:12;18.20;99.90
770;DHT22;368;48.698;9.116;2023-09-18T04:46:40;18.10;99.90
770;DHT22;368;48.698;9.116;2023-09-18T04:49:09;17.90;99.90
770;DHT22;368;48.698;9.116;2023-09-18T04:51:37;17.70;99.90
770;DHT22;368;48.698;9.116;2023-09-18T04:54:04;17.70;99.90
770;DHT22;368;48.698;9.116;2023-09-18T04:56:32;17.50;99.90
770;DHT22;368;48.698;9.116;2023-09-18T04:58:58;17.50;99.90
770;DHT22;368;48.698;9.116;2023-09-18T05:01:25;17.50;99.90
770;DHT22;368;48.698;9.116;2023-09-18T05:03:52;17.40;99.90
770;DHT22;368;48.698;9.116;2023-09-18T05:06:21;17.50;99.90
770;DHT22;368;48.698;9.116;2023-09-18T05:08:47;17.50;99.90
770;DHT22;368;48.698;9.116;2023-09-18T05:11:14;17.60;99.90
770;DHT22;368;48.698;9.116;2023-09-18T05:13:42;17.60;99.90
770;DHT22;368;48.698;9.116;2023-09-18T05:16:09;17.60;99.90
770;DHT22;368;48.698;9.116;2023-09-18T05:18:35;17.70;99.90
770;DHT22;368;48.698;9.116;2023-09-18T05:21:03;17.70;99.90
770;DHT22;368;48.698;9.116;2023-09-18T05:23:32;17.90;99.90
770;DHT22;368;48.698;9.116;2023-09-18T05:25:59;18.00;99.90
770;DHT22;368;48.698;9.116;2023-09-18T05:28:26;17.90;99.90
770;DHT22;368;48.698;9.116;2023-09-18T05:30:53;17.70;99.90
770;DHT22;368;48.698;9.116;2023-09-18T05:33:20;17.60;99.90
770;DHT22;368;48.698;9.116;2023-09-18T05:35:47;17.60;99.90
770;DHT22;368;48.698;9.116;2023-09-18T05:38:14;17.70;99.90
770;DHT22;368;48.698;9.116;2023-09-18T05:40:44;17.70;99.90
770;DHT22;368;48.698;9.116;2023-09-18T05:43:12;17.80;99.90
770;DHT22;368;48.698;9.116;2023-09-18T05:45:39;17.90;99.90
770;DHT22;368;48.698;9.116;2023-09-18T05:48:06;18.00;99.90
770;DHT22;368;48.698;9.116;2023-09-18T05:50:34;18.10;99.90
770;DHT22;368;48.698;9.116;2023-09-18T05:53:02;18.10;99.90
770;DHT22;368;48.698;9.116;2023-09-18T05:55:30;18.20;99.90
770;DHT22;368;48.698;9.116;2023-09-18T05:57:59;18.30;99.90
770;DHT22;368;48.698;9.116;2023-09-18T06:00:26;18.30;99.90
770;DHT22;368;48.698;9.116;2023-09-18T06:02:53;18.30;99.90
770;DHT22;368;48.698;9.116;2023-09-18T06:05:19;18.30;99.90
770;DHT22;368;48.698;9.116;2023-09-18T06:07:47;18.30;99.90
770;DHT22;368;48.698;9.116;2023-09-18T06:10:14;18.30;99.90
770;DHT22;368;48.698;9.116;2023-09-18T06:12:43;18.30;99.90
770;DHT22;368;48.698;9.116;2023-09-18T06:15:12;18.30;99.90
770;DHT22;368;48.698;9.116;2023-09-18T06:17:40;18.30;99.90
770;DHT22;368;48.698;9.116;2023-09-18T06:20:08;18.30;99.90
770;DHT22;368;48.698;9.116;2023-09-18T06:22:36;18.30;99.90
770;DHT22;368;48.698;9.116;2023-09-18T06:25:04;18.20;99.90
770;DHT22;368;48.698;9.116;2023-09-18T06:27:33;18.20;99.90
770;DHT22;368;48.698;9.116;2023-09-18T06:30:01;18.10;99.90
770;DHT22;368;48.698;9.116;2023-09-18T06:32:29;18.10;99.90
770;DHT22;368;48.698;9.116;2023-09-18T06:34:56;18.10;99.90
770;DHT22;368;48.698;9.116;2023-09-18T06:37:24;18.00;99.90
770;DHT22;368;48.698;9.116;2023-09-18T06:39:50;18.10;99.90
770;DHT22;368;48.698;9.116;2023-09-18T06:42:17;18.20;99.90
770;DHT22;368;48.698;9.116;2023-09-18T06:44:44;18.20;99.90
770;DHT22;368;48.698;9.116;2023-09-18T06:47:11;18.10;99.90
770;DHT22;368;48.698;9.116;2023-09-18T06:49:41;18.20;99.90
770;DHT22;368;48.698;9.116;2023-09-18T06:52:08;18.20;99.90
770;DHT22;368;48.698;9.116;2023-09-18T06:54:35;18.10;99.90
770;DHT22;368;48.698;9.116;2023-09-18T06:57:02;18.20;99.90
770;DHT22;368;48.698;9.116;2023-09-18T06:59:29;18.20;99.90
770;DHT22;368;48.698;9.116;2023-09-18T07:01:57;18.20;99.90
770;DHT22;368;48.698;9.116;2023-09-18T07:04:24;18.30;99.90
770;DHT22;368;48.698;9.116;2023-09-18T07:06:52;18.40;99.90
770;DHT22;368;48.698;9.116;2023-09-18T07:09:19;18.50;99.90
770;DHT22;368;48.698;9.116;2023-09-18T07:11:48;18.50;99.90
770;DHT22;368;48.698;9.116;2023-09-18T07:14:16;18.70;99.90
770;DHT22;368;48.698;9.116;2023-09-18T07:16:43;18.70;99.90
770;DHT22;368;48.698;9.116;2023-09-18T07:19:10;18.80;99.90
770;DHT22;368;48.698;9.116;2023-09-18T07:21:42;18.90;99.90
770;DHT22;368;48.698;9.116;2023-09-18T07:24:10;18.90;99.90
770;DHT22;368;48.698;9.116;2023-09-18T07:26:43;18.90;99.90
770;DHT22;368;48.698;9.116;2023-09-18T07:29:10;18.90;99.90
770;DHT22;368;48.698;9.116;2023-09-18T07:31:37;19.00;99.90
770;DHT22;368;48.698;9.116;2023-09-18T07:34:04;18.90;99.90
770;DHT22;368;48.698;9.116;2023-09-18T07:36:31;18.90;99.90
770;DHT22;368;48.698;9.116;2023-09-18T07:38:57;19.00;99.90
770;DHT22;368;48.698;9.116;2023-09-18T07:41:25;19.20;99.90
770;DHT22;368;48.698;9.116;2023-09-18T07:43:52;19.20;99.90
770;DHT22;368;48.698;9.116;2023-09-18T07:46:19;19.20;99.90
770;DHT22;368;48.698;9.116;2023-09-18T07:48:46;19.20;99.90
770;DHT22;368;48.698;9.116;2023-09-18T07:51:12;19.30;99.90
770;DHT22;368;48.698;9.116;2023-09-18T07:53:41;19.40;99.90
770;DHT22;368;48.698;9.116;2023-09-18T07:56:08;19.60;99.90
770;DHT22;368;48.698;9.116;2023-09-18T07:58:37;19.50;99.90
770;DHT22;368;48.698;9.116;2023-09-18T08:01:05;19.60;99.90
770;DHT22;368;48.698;9.116;2023-09-18T08:03:32;19.70;99.90
770;DHT22;368;48.698;9.116;2023-09-18T08:05:59;19.80;99.90
770;DHT22;368;48.698;9.116;2023-09-18T08:08:26;19.60;99.90
770;DHT22;368;48.698;9.116;2023-09-18T08:10:53;19.50;99.90
770;DHT22;368;48.698;9.116;2023-09-18T08:13:20;19.50;99.90
770;DHT22;368;48.698;9.116;2023-09-18T08:15:49;19.30;99.90
770;DHT22;368;48.698;9.116;2023-09-18T08:18:18;19.30;99.90
770;DHT22;368;48.698;9.116;2023-09-18T08:20:45;19.20;99.90
770;DHT22;368;48.698;9.116;2023-09-18T08:23:12;19.20;99.90
770;DHT22;368;48.698;9.116;2023-09-18T08:25:38;19.10;99.90
770;DHT22;368;48.698;9.116;2023-09-18T08:28:06;19.00;99.90
770;DHT22;368;48.698;9.116;2023-09-18T08:30:33;18.90;99.90
770;DHT22;368;48.698;9.116;2023-09-18T08:33:01;18.90;99.90
770;DHT22;368;48.698;9.116;2023-09-18T08:35:28;19.00;99.90
770;DHT22;368;48.698;9.116;2023-09-18T08:37:55;18.90;99.90
770;DHT22;368;48.698;9.116;2023-09-18T08:40:23;18.70;99.90
770;DHT22;368;48.698;9.116;2023-09-18T08:42:52;18.60;99.90
770;DHT22;368;48.698;9.116;2023-09-18T08:45:23;18.60;99.90
770;DHT22;368;48.698;9.116;2023-09-18T08:47:52;18.30;99.90
770;DHT22;368;48.698;9.116;2023-09-18T08:50:22;18.00;99.90
770;DHT22;368;48.698;9.116;2023-09-18T08:52:50;17.80;99.90
770;DHT22;368;48.698;9.116;2023-09-18T08:55:17;17.70;99.90
770;DHT22;368;48.698;9.116;2023-09-18T08:57:46;17.70;99.90
770;DHT22;368;48.698;9.116;2023-09-18T09:00:13;17.70;99.90
770;DHT22;368;48.698;9.116;2023-09-18T09:02:43;17.70;99.90
770;DHT22;368;48.698;9.116;2023-09-18T09:05:10;17.70;99.90
770;DHT22;368;48.698;9.116;2023-09-18T09:07:39;17.70;99.90
770;DHT22;368;48.698;9.116;2023-09-18T09:10:06;17.80;99.90
770;DHT22;368;48.698;9.116;2023-09-18T09:12:50;17.70;99.90
770;DHT22;368;48.698;9.116;2023-09-18T09:15:17;17.80;99.90
770;DHT22;368;48.698;9.116;2023-09-18T09:17:43;17.80;99.90
770;DHT22;368;48.698;9.116;2023-09-18T09:20:12;17.90;99.90
770;DHT22;368;48.698;9.116;2023-09-18T09:22:41;17.90;99.90
770;DHT22;368;48.698;9.116;2023-09-18T09:25:22;18.00;99.90
770;DHT22;368;48.698;9.116;2023-09-18T09:27:49;18.10;99.90
770;DHT22;368;48.698;9.116;2023-09-18T09:30:19;18.10;99.90
770;DHT22;368;48.698;9.116;2023-09-18T09:32:48;18.10;99.90
770;DHT22;368;48.698;9.116;2023-09-18T09:35:23;18.20;99.90
770;DHT22;368;48.698;9.116;2023-09-18T09:37:56;18.10;99.90
770;DHT22;368;48.698;9.116;2023-09-18T09:40:24;18.20;99.90
770;DHT22;368;48.698;9.116;2023-09-18T09:42:52;18.20;99.90
770;DHT22;368;48.698;9.116;2023-09-18T09:45:26;18.30;99.90
770;DHT22;368;48.698;9.116;2023-09-18T09:47:54;18.30;99.90
770;DHT22;368;48.698;9.116;2023-09-18T09:50:21;18.40;99.90
770;DHT22;368;48.698;9.116;2023-09-18T09:52:50;18.40;99.90
770;DHT22;368;48.698;9.116;2023-09-18T09:55:23;18.60;99.90
770;DHT22;368;48.698;9.116;2023-09-18T09:57:53;18.70;99.90
770;DHT22;368;48.698;9.116;2023-09-18T10:00:23;18.80;99.90
770;DHT22;368;48.698;9.116;2023-09-18T10:03:00;19.00;99.90
770;DHT22;368;48.698;9.116;2023-09-18T10:05:30;19.00;99.90
770;DHT22;368;48.698;9.116;2023-09-18T10:08:03;18.80;99.90
770;DHT22;368;48.698;9.116;2023-09-18T10:10:35;18.80;99.90
770;DHT22;368;48.698;9.116;2023-09-18T10:13:07;18.70;99.90
770;DHT22;368;48.698;9.116;2023-09-18T10:15:35;18.50;99.90
770;DHT22;368;48.698;9.116;2023-09-18T10:18:07;18.50;99.90
770;DHT22;368;48.698;9.116;2023-09-18T10:20:40;18.20;99.90
770;DHT22;368;48.698;9.116;2023-09-18T10:23:18;18.30;99.90
770;DHT22;368;48.698;9.116;2023-09-18T10:25:52;18.30;99.90
770;DHT22;368;48.698;9.116;2023-09-18T10:28:21;18.20;99.90
770;DHT22;368;48.698;9.116;2023-09-18T10:30:49;18.10;99.90
770;DHT22;368;48.698;9.116;2023-09-18T10:33:17;18.10;99.90
770;DHT22;368;48.698;9.116;2023-09-18T10:35:45;18.00;99.90
770;DHT22;368;48.698;9.116;2023-09-18T10:38:15;18.00;99.90
770;DHT22;368;48.698;9.116;2023-09-18T10:40:43;18.00;99.90
770;DHT22;368;48.698;9.116;2023-09-18T10:43:11;18.00;99.90
770;DHT22;368;48.698;9.116;2023-09-18T10:45:42;18.00;99.90
770;DHT22;368;48.698;9.116;2023-09-18T10:48:10;18.00;99.90
770;DHT22;368;48.698;9.116;2023-09-18T10:50:39;18.00;99.90
770;DHT22;368;48.698;9.116;2023-09-18T10:53:06;18.10;99.90
770;DHT22;368;48.698;9.116;2023-09-18T10:55:34;18.00;99.90
770;DHT22;368;48.698;9.116;2023-09-18T10:58:02;18.10;99.90
770;DHT22;368;48.698;9.116;2023-09-18T11:00:31;18.20;99.90
770;DHT22;368;48.698;9.116;2023-09-18T11:03:13;18.20;99.90
770;DHT22;368;48.698;9.116;2023-09-18T11:05:40;18.20;99.90
770;DHT22;368;48.698;9.116;2023-09-18T11:08:27;18.20;99.90
770;DHT22;368;48.698;9.116;2023-09-18T11:10:58;18.20;99.90
770;DHT22;368;48.698;9.116;2023-09-18T11:13:30;18.30;99.90
770;DHT22;368;48.698;9.116;2023-09-18T11:16:14;18.30;99.90
770;DHT22;368;48.698;9.116;2023-09-18T11:18:41;18.30;99.90
770;DHT22;368;48.698;9.116;2023-09-18T11:21:09;18.30;99.90
770;DHT22;368;48.698;9.116;2023-09-18T11:23:38;18.20;99.90
770;DHT22;368;48.698;9.116;2023-09-18T11:26:08;18.20;99.90
770;DHT22;368;48.698;9.116;2023-09-18T11:28:36;18.30;99.90
770;DHT22;368;48.698;9.116;2023-09-18T11:31:05;18.40;99.90
770;DHT22;368;48.698;9.116;2023-09-18T11:33:34;18.40;99.90
770;DHT22;368;48.698;9.116;2023-09-18T11:36:07;18.60;99.90
770;DHT22;368;48.698;9.116;2023-09-18T11:38:51;18.80;99.90
770;DHT22;368;48.698;9.116;2023-09-18T11:41:26;18.60;99.90
770;DHT22;368;48.698;9.116;2023-09-18T11:43:54;18.70;99.90
770;DHT22;368;48.698;9.116;2023-09-18T11:46:46;18.60;99.90
770;DHT22;368;48.698;9.116;2023-09-18T11:49:14;18.70;99.90
770;DHT22;368;48.698;9.116;2023-09-18T11:51:42;18.80;99.90
770;DHT22;368;48.698;9.116;2023-09-18T11:54:09;18.90;99.90
770;DHT22;368;48.698;9.116;2023-09-18T11:56:39;18.90;99.90
770;DHT22;368;48.698;9.116;2023-09-18T11:59:06;19.00;99.90
770;DHT22;368;48.698;9.116;2023-09-18T12:01:34;18.90;99.90
770;DHT22;368;48.698;9.116;2023-09-18T12:04:04;18.90;99.90
770;DHT22;368;48.698;9.116;2023-09-18T12:06:33;18.90;99.90
770;DHT22;368;48.698;9.116;2023-09-18T12:09:00;18.90;99.90
770;DHT22;368;48.698;9.116;2023-09-18T12:11:27;18.80;99.90
770;DHT22;368;48.698;9.116;2023-09-18T12:13:54;18.80;99.90
770;DHT22;368;48.698;9.116;2023-09-18T12:16:21;18.90;99.90
770;DHT22;368;48.698;9.116;2023-09-18T12:18:48;19.00;99.90
770;DHT22;368;48.698;9.116;2023-09-18T12:21:17;19.10;99.90
770;DHT22;368;48.698;9.116;2023-09-18T12:23:45;19.10;99.90
770;DHT22;368;48.698;9.116;2023-09-18T12:26:13;19.20;99.90
770;DHT22;368;48.698;9.116;2023-09-18T12:28:41;19.20;99.90
770;DHT22;368;48.698;9.116;2023-09-18T12:31:10;19.20;99.90
770;DHT22;368;48.698;9.116;2023-09-18T12:33:38;19.50;99.90
770;DHT22;368;48.698;9.116;2023-09-18T12:36:06;19.70;99.90
770;DHT22;368;48.698;9.116;2023-09-18T12:38:35;20.10;99.90
770;DHT22;368;48.698;9.116;2023-09-18T12:41:03;20.40;99.90
770;DHT22;368;48.698;9.116;2023-09-18T12:43:34;20.80;99.90
770;DHT22;368;48.698;9.116;2023-09-18T12:46:02;21.40;99.90
770;DHT22;368;48.698;9.116;2023-09-18T12:48:30;22.00;99.90
770;DHT22;368;48.698;9.116;2023-09-18T12:51:02;22.90;99.90
770;DHT22;368;48.698;9.116;2023-09-18T12:53:30;23.00;99.90
770;DHT22;368;48.698;9.116;2023-09-18T12:56:06;22.50;99.90
770;DHT22;368;48.698;9.116;2023-09-18T12:58:33;22.10;99.90
770;DHT22;368;48.698;9.116;2023-09-18T13:01:04;21.60;99.90
770;DHT22;368;48.698;9.116;2023-09-18T13:03:35;21.80;99.90
770;DHT22;368;48.698;9.116;2023-09-18T13:06:11;21.90;99.90
770;DHT22;368;48.698;9.116;2023-09-18T13:08:38;22.00;99.90
770;DHT22;368;48.698;9.116;2023-09-18T13:11:06;22.10;99.90
770;DHT22;368;48.698;9.116;2023-09-18T13:13:34;22.00;99.90
770;DHT22;368;48.698;9.116;2023-09-18T13:16:05;21.40;99.90
770;DHT22;368;48.698;9.116;2023-09-18T13:18:32;21.50;99.90
770;DHT22;368;48.698;9.116;2023-09-18T13:20:59;21.70;99.90
770;DHT22;368;48.698;9.116;2023-09-18T13:23:29;21.90;99.90
770;DHT22;368;48.698;9.116;2023-09-18T13:26:00;22.10;99.90
770;DHT22;368;48.698;9.116;2023-09-18T13:28:28;21.90;99.90
770;DHT22;368;48.698;9.116;2023-09-18T13:30:57;22.40;99.90
770;DHT22;368;48.698;9.116;2023-09-18T13:33:25;24.40;99.90
770;DHT22;368;48.698;9.116;2023-09-18T13:35:52;25.50;99.90
770;DHT22;368;48.698;9.116;2023-09-18T13:38:21;25.50;99.30
770;DHT22;368;48.698;9.116;2023-09-18T13:40:48;25.00;99.40
770;DHT22;368;48.698;9.116;2023-09-18T13:43:15;24.10;99.90
770;DHT22;368;48.698;9.116;2023-09-18T13:45:45;23.10;99.90
770;DHT22;368;48.698;9.116;2023-09-18T13:48:12;22.60;99.90
770;DHT22;368;48.698;9.116;2023-09-18T13:50:40;22.10;99.90
770;DHT22;368;48.698;9.116;2023-09-18T13:53:07;21.70;99.90
770;DHT22;368;48.698;9.116;2023-09-18T13:55:34;21.60;99.90
770;DHT22;368;48.698;9.116;2023-09-18T13:58:02;21.80;99.90
770;DHT22;368;48.698;9.116;2023-09-18T14:00:29;21.80;99.90
770;DHT22;368;48.698;9.116;2023-09-18T14:02:57;22.10;99.90
770;DHT22;368;48.698;9.116;2023-09-18T14:05:25;22.00;99.90
770;DHT22;368;48.698;9.116;2023-09-18T14:07:52;21.80;99.90
770;DHT22;368;48.698;9.116;2023-09-18T14:10:23;21.60;99.90
770;DHT22;368;48.698;9.116;2023-09-18T14:12:49;21.90;99.90
770;DHT22;368;48.698;9.116;2023-09-18T14:15:17;22.20;99.90
770;DHT22;368;48.698;9.116;2023-09-18T14:17:44;22.80;99.90
770;DHT22;368;48.698;9.116;2023-09-18T14:20:12;23.30;99.90
770;DHT22;368;48.698;9.116;2023-09-18T14:22:40;23.40;99.90
770;DHT22;368;48.698;9.116;2023-09-18T14:25:07;23.30;99.90
770;DHT22;368;48.698;9.116;2023-09-18T14:27:35;23.00;99.90
770;DHT22;368;48.698;9.116;2023-09-18T14:30:02;22.60;99.90
770;DHT22;368;48.698;9.116;2023-09-18T14:32:31;22.10;99.90
770;DHT22;368;48.698;9.116;2023-09-18T14:34:58;22.20;99.90
770;DHT22;368;48.698;9.116;2023-09-18T14:37:28;22.30;99.90
770;DHT22;368;48.698;9.116;2023-09-18T14:39:55;22.30;99.90
770;DHT22;368;48.698;9.116;2023-09-18T14:42:22;22.30;99.90
770;DHT22;368;48.698;9.116;2023-09-18T14:44:49;22.40;99.90
770;DHT22;368;48.698;9.116;2023-09-18T14:47:15;22.80;99.90
770;DHT22;368;48.698;9.116;2023-09-18T14:49:42;23.40;99.90
770;DHT22;368;48.698;9.116;2023-09-18T14:52:11;24.20;99.40
770;DHT22;368;48.698;9.116;2023-09-18T14:54:39;25.10;98.00
770;DHT22;368;48.698;9.116;2023-09-18T14:57:07;25.30;96.10
770;DHT22;368;48.698;9.116;2023-09-18T14:59:33;25.10;96.70
770;DHT22;368;48.698;9.116;2023-09-18T15:02:00;24.40;96.60
770;DHT22;368;48.698;9.116;2023-09-18T15:04:28;24.10;97.40
770;DHT22;368;48.698;9.116;2023-09-18T15:06:56;23.70;98.60
770;DHT22;368;48.698;9.116;2023-09-18T15:09:22;23.20;98.90
770;DHT22;368;48.698;9.116;2023-09-18T15:11:51;22.80;98.80
770;DHT22;368;48.698;9.116;2023-09-18T15:14:17;21.90;99.90
770;DHT22;368;48.698;9.116;2023-09-18T15:16:44;21.70;99.90
770;DHT22;368;48.698;9.116;2023-09-18T15:19:11;21.60;99.90
770;DHT22;368;48.698;9.116;2023-09-18T15:21:39;21.70;99.90
770;DHT22;368;48.698;9.116;2023-09-18T15:24:07;22.00;99.90
770;DHT22;368;48.698;9.116;2023-09-18T15:26:33;22.30;99.90
770;DHT22;368;48.698;9.116;2023-09-18T15:29:02;22.60;99.90
770;DHT22;368;48.698;9.116;2023-09-18T15:31:28;23.20;99.50
770;DHT22;368;48.698;9.116;2023-09-18T15:33:55;24.10;97.90
770;DHT22;368;48.698;9.116;2023-09-18T15:36:22;24.20;97.20
770;DHT22;368;48.698;9.116;2023-09-18T15:38:49;23.90;97.70
770;DHT22;368;48.698;9.116;2023-09-18T15:41:16;23.60;98.30
770;DHT22;368;48.698;9.116;2023-09-18T15:43:43;23.60;98.30
770;DHT22;368;48.698;9.116;2023-09-18T15:46:13;23.10;98.60
770;DHT22;368;48.698;9.116;2023-09-18T15:48:42;22.70;98.90
770;DHT22;368;48.698;9.116;2023-09-18T15:51:09;22.60;99.30
770;DHT22;368;48.698;9.116;2023-09-18T15:53:36;22.30;99.60
770;DHT22;368;48.698;9.116;2023-09-18T15:56:04;21.80;99.90
770;DHT22;368;48.698;9.116;2023-09-18T15:58:31;21.70;99.90
770;DHT22;368;48.698;9.116;2023-09-18T16:00:57;21.80;99.90
770;DHT22;368;48.698;9.116;2023-09-18T16:03:28;21.60;99.90
770;DHT22;368;48.698;9.116;2023-09-18T16:05:54;21.60;99.90
770;DHT22;368;48.698;9.116;2023-09-18T16:08:21;21.50;99.90
770;DHT22;368;48.698;9.116;2023-09-18T16:10:48;21.30;99.90
770;DHT22;368;48.698;9.116;2023-09-18T16:13:16;21.50;99.90
770;DHT22;368;48.698;9.116;2023-09-18T16:15:43;21.30;99.90
770;DHT22;368;48.698;9.116;2023-09-18T16:18:11;21.20;99.90
770;DHT22;368;48.698;9.116;2023-09-18T16:20:39;21.00;99.90
770;DHT22;368;48.698;9.116;2023-09-18T16:23:06;20.70;99.90
770;DHT22;368;48.698;9.116;2023-09-18T16:25:33;20.80;99.90
770;DHT22;368;48.698;9.116;2023-09-18T16:27:59;20.60;99.90
770;DHT22;368;48.698;9.116;2023-09-18T16:30:27;20.50;99.90
770;DHT22;368;48.698;9.116;2023-09-18T16:32:54;20.40;99.90
770;DHT22;368;48.698;9.116;2023-09-18T16:35:21;20.40;99.90
770;DHT22;368;48.698;9.116;2023-09-18T16:37:49;20.40;99.90
770;DHT22;368;48.698;9.116;2023-09-18T16:40:16;20.30;99.90